TimeMDT,TemperatureF,Dew PointF,Humidity,Sea Level PressureIn,VisibilityMPH,Wind Direction,Wind SpeedMPH,Gust SpeedMPH,PrecipitationIn,Events,Conditions,WindDirDegrees,DateUTC
12:53 AM,36.0,25.0,64,30.12,10.0,SE,9.2,-,N/A,,Overcast,130,2013-03-12 06:53:00
1:53 AM,34.0,25.0,70,30.13,10.0,SSE,8.1,-,N/A,,Clear,160,2013-03-12 07:53:00
2:53 AM,35.1,26.1,70,30.14,10.0,South,6.9,-,N/A,,Overcast,170,2013-03-12 08:53:00
3:53 AM,35.1,27.0,72,30.14,10.0,SSE,5.8,-,N/A,,Overcast,150,2013-03-12 09:53:00
4:53 AM,35.1,28.0,76,30.14,10.0,SSE,4.6,-,N/A,,Mostly Cloudy,160,2013-03-12 10:53:00
5:53 AM,35.1,28.0,76,30.17,10.0,SE,3.5,-,N/A,,Mostly Cloudy,140,2013-03-12 11:53:00
6:53 AM,35.1,27.0,72,30.19,10.0,ESE,6.9,-,N/A,,Partly Cloudy,120,2013-03-12 12:53:00
7:53 AM,34.0,28.0,79,30.22,10.0,SE,3.5,-,N/A,,Overcast,140,2013-03-12 13:53:00
8:53 AM,39.9,27.0,60,30.22,10.0,SSE,8.1,-,N/A,,Mostly Cloudy,150,2013-03-12 14:53:00
9:53 AM,44.1,28.0,53,30.23,10.0,Calm,Calm,-,N/A,,Clear,0,2013-03-12 15:53:00
10:53 AM,48.0,26.1,42,30.22,10.0,Calm,Calm,-,N/A,,Clear,0,2013-03-12 16:53:00
11:53 AM,48.9,25.0,39,30.20,10.0,Calm,Calm,-,N/A,,Clear,0,2013-03-12 17:53:00
12:53 PM,52.0,26.1,37,30.21,10.0,NNW,10.4,-,N/A,,Partly Cloudy,330,2013-03-12 18:53:00
1:53 PM,54.0,26.1,34,30.21,10.0,Variable,5.8,-,N/A,,Clear,0,2013-03-12 19:53:00
2:53 PM,55.0,25.0,31,30.17,10.0,NNW,3.5,-,N/A,,Clear,330,2013-03-12 20:53:00
3:53 PM,55.0,25.0,31,30.17,10.0,Variable,6.9,-,N/A,,Clear,0,2013-03-12 21:53:00
4:53 PM,55.9,25.0,30,30.16,10.0,Variable,3.5,-,N/A,,Clear,0,2013-03-12 22:53:00
5:53 PM,55.0,25.0,31,30.16,10.0,Variable,3.5,-,N/A,,Clear,0,2013-03-12 23:53:00
6:53 PM,54.0,25.0,33,30.17,10.0,NNE,3.5,-,N/A,,Clear,30,2013-03-13 00:53:00
7:53 PM,48.9,28.9,46,30.19,10.0,Calm,Calm,-,N/A,,Clear,0,2013-03-13 01:53:00
8:53 PM,44.1,28.9,55,30.21,10.0,South,3.5,-,N/A,,Clear,180,2013-03-13 02:53:00
9:53 PM,41.0,28.9,62,30.24,10.0,SE,6.9,-,N/A,,Clear,130,2013-03-13 03:53:00
10:53 PM,39.0,28.0,65,30.26,10.0,SSE,11.5,-,N/A,,Clear,150,2013-03-13 04:53:00
11:53 PM,37.9,27.0,65,30.27,10.0,SE,9.2,-,N/A,,Clear,140,2013-03-13 05:53:00